createdAt,value
2019-02-15T00:01:12.077Z,87.00
2019-02-15T00:03:39.843Z,87.00
2019-02-15T00:06:07.717Z,87.80
2019-02-15T00:08:36.404Z,87.90
2019-02-15T00:11:04.266Z,88.00
2019-02-15T00:13:32.260Z,87.90
2019-02-15T00:16:00.186Z,88.00
2019-02-15T00:18:37.588Z,88.10
2019-02-15T00:21:15.631Z,88.40
2019-02-15T00:23:43.598Z,88.80
2019-02-15T00:26:11.439Z,88.80
2019-02-15T00:28:39.218Z,89.30
2019-02-15T00:31:08.168Z,89.50
2019-02-15T00:33:35.969Z,89.60
2019-02-15T00:36:04.023Z,89.50
2019-02-15T00:38:31.782Z,89.40
2019-02-15T00:40:59.719Z,89.50
2019-02-15T00:43:28.030Z,89.80
2019-02-15T00:46:17.802Z,89.80
2019-02-15T00:48:45.618Z,89.80
2019-02-15T00:51:32.011Z,89.90
2019-02-15T00:54:21.751Z,89.80
2019-02-15T00:57:13.409Z,90.00
2019-02-15T01:00:12.401Z,90.10
2019-02-15T01:03:13.972Z,90.00
2019-02-15T01:06:21.080Z,90.00
2019-02-15T01:09:26.380Z,90.00
2019-02-15T01:12:13.576Z,90.00
2019-02-15T01:14:41.506Z,90.00
2019-02-15T01:17:10.060Z,90.00
2019-02-15T01:19:37.880Z,90.10
2019-02-15T01:22:05.586Z,90.00
2019-02-15T01:24:33.663Z,90.10
2019-02-15T01:27:13.591Z,90.00
2019-02-15T01:29:59.291Z,89.90
2019-02-15T01:32:43.140Z,90.00
2019-02-15T01:35:33.427Z,89.80
2019-02-15T01:38:26.153Z,89.50
2019-02-15T01:41:25.342Z,88.80
2019-02-15T01:44:15.859Z,88.80
2019-02-15T01:46:57.566Z,88.70
2019-02-15T01:49:25.862Z,89.20
2019-02-15T01:51:55.088Z,89.30
2019-02-15T01:54:22.799Z,89.60
2019-02-15T01:56:50.785Z,89.70
2019-02-15T01:59:18.648Z,89.70
2019-02-15T02:01:46.431Z,89.80
2019-02-15T02:04:14.434Z,90.00
2019-02-15T02:06:42.422Z,90.00
2019-02-15T02:09:10.401Z,89.90
2019-02-15T02:11:38.456Z,89.80
2019-02-15T02:14:09.513Z,90.00
2019-02-15T02:16:37.413Z,89.90
2019-02-15T02:19:07.449Z,89.80
2019-02-15T02:21:35.093Z,89.60
2019-02-15T02:24:02.873Z,89.30
2019-02-15T02:26:30.795Z,89.20
2019-02-15T02:28:58.634Z,89.40
2019-02-15T02:31:26.518Z,89.10
2019-02-15T02:33:54.259Z,89.30
2019-02-15T02:36:43.765Z,89.10
2019-02-15T02:39:11.519Z,88.80
2019-02-15T02:41:39.249Z,89.00
2019-02-15T02:44:07.146Z,88.80
2019-02-15T02:46:35.257Z,89.10
2019-02-15T02:49:03.141Z,88.70
2019-02-15T02:51:33.337Z,88.70
2019-02-15T02:54:00.996Z,89.10
2019-02-15T02:56:29.285Z,88.60
2019-02-15T02:58:57.035Z,88.00
2019-02-15T03:01:25.775Z,87.30
2019-02-15T03:03:53.690Z,86.80
2019-02-15T03:06:21.816Z,86.50
2019-02-15T03:08:49.711Z,86.80
2019-02-15T03:11:17.674Z,86.70
2019-02-15T03:13:45.586Z,86.70
2019-02-15T03:16:13.665Z,86.90
2019-02-15T03:18:41.396Z,87.30
2019-02-15T03:21:09.242Z,87.40
2019-02-15T03:23:36.940Z,87.60
2019-02-15T03:26:04.800Z,87.40
2019-02-15T03:28:32.759Z,87.80
2019-02-15T03:31:00.641Z,88.20
2019-02-15T03:33:28.566Z,87.50
2019-02-15T03:36:00.963Z,86.90
2019-02-15T03:38:51.469Z,86.00
2019-02-15T03:41:26.381Z,87.10
2019-02-15T03:43:55.405Z,87.00
2019-02-15T03:46:23.540Z,87.20
2019-02-15T03:48:51.363Z,86.60
2019-02-15T03:51:19.291Z,86.90
2019-02-15T03:53:47.509Z,86.60
2019-02-15T03:56:15.536Z,86.60
2019-02-15T03:58:43.728Z,86.60
2019-02-15T04:01:11.478Z,86.10
2019-02-15T04:03:39.271Z,85.90
2019-02-15T04:06:07.079Z,86.20
2019-02-15T04:08:34.836Z,87.30
2019-02-15T04:11:02.735Z,87.40
2019-02-15T04:13:30.687Z,87.90
2019-02-15T04:15:58.557Z,88.30
2019-02-15T04:18:26.449Z,87.40
2019-02-15T04:20:54.297Z,87.10
2019-02-15T04:23:22.363Z,86.50
2019-02-15T04:25:50.311Z,86.20
2019-02-15T04:28:18.234Z,86.90
2019-02-15T04:30:46.117Z,87.40
2019-02-15T04:33:14.038Z,86.30
2019-02-15T04:35:41.909Z,86.00
2019-02-15T04:38:09.787Z,86.20
2019-02-15T04:40:39.418Z,86.20
2019-02-15T04:43:07.279Z,86.80
2019-02-15T04:45:35.119Z,87.30
2019-02-15T04:48:03.035Z,87.10
2019-02-15T04:50:30.907Z,87.40
2019-02-15T04:52:58.914Z,87.70
2019-02-15T04:55:26.699Z,88.00
2019-02-15T04:57:54.437Z,88.20
2019-02-15T05:00:22.547Z,88.00
2019-02-15T05:02:50.321Z,88.20
2019-02-15T05:05:18.248Z,88.20
2019-02-15T05:07:46.020Z,88.20
2019-02-15T05:10:14.094Z,87.80
2019-02-15T05:12:41.894Z,88.00
2019-02-15T05:15:12.163Z,87.80
2019-02-15T05:17:40.040Z,88.20
2019-02-15T05:20:09.473Z,88.30
2019-02-15T05:22:37.274Z,88.00
2019-02-15T05:25:05.281Z,87.90
2019-02-15T05:27:33.185Z,88.10
2019-02-15T05:30:00.923Z,87.90
2019-02-15T05:32:29.196Z,87.80
2019-02-15T05:34:57.185Z,87.90
2019-02-15T05:37:35.460Z,88.20
2019-02-15T05:40:15.738Z,88.70
2019-02-15T05:42:43.434Z,87.40
2019-02-15T05:45:13.655Z,86.30
2019-02-15T05:47:41.774Z,85.70
2019-02-15T05:50:11.823Z,84.80
2019-02-15T05:52:40.895Z,82.90
2019-02-15T05:55:12.481Z,82.60
2019-02-15T05:57:40.749Z,82.40
2019-02-15T06:00:11.553Z,81.90
2019-02-15T06:02:39.347Z,81.90
2019-02-15T06:05:07.793Z,82.70
2019-02-15T06:07:35.695Z,82.20
2019-02-15T06:10:03.832Z,81.40
2019-02-15T06:12:32.224Z,81.60
2019-02-15T06:15:00.009Z,81.20
2019-02-15T06:17:28.058Z,81.50
2019-02-15T06:19:56.118Z,81.30
2019-02-15T06:22:24.101Z,80.90
2019-02-15T06:24:53.494Z,82.60
2019-02-15T06:27:21.915Z,82.80
2019-02-15T06:29:49.737Z,82.70
2019-02-15T06:32:17.530Z,83.20
2019-02-15T06:34:45.358Z,84.10
2019-02-15T06:37:13.133Z,84.10
2019-02-15T06:39:40.892Z,83.70
2019-02-15T06:42:08.680Z,82.60
2019-02-15T06:44:36.436Z,80.80
2019-02-15T06:47:04.182Z,81.20
2019-02-15T06:49:31.862Z,80.60
2019-02-15T06:51:59.778Z,79.90
2019-02-15T06:54:27.389Z,79.50
2019-02-15T06:56:55.145Z,79.60
2019-02-15T06:59:47.905Z,79.30
2019-02-15T07:02:35.129Z,79.30
2019-02-15T07:05:34.512Z,79.20
2019-02-15T07:08:02.235Z,79.70
2019-02-15T07:10:29.946Z,79.60
2019-02-15T07:12:58.073Z,78.70
2019-02-15T07:15:33.395Z,78.30
2019-02-15T07:17:55.628Z,78.30
2019-02-15T07:23:00.689Z,76.70
2019-02-15T07:25:29.267Z,77.00
2019-02-15T07:27:58.327Z,77.60
2019-02-15T07:30:27.742Z,76.90
2019-02-15T07:32:57.618Z,76.00
2019-02-15T07:35:25.724Z,76.10
2019-02-15T07:37:54.153Z,76.00
2019-02-15T07:40:22.548Z,76.60
2019-02-15T07:42:50.622Z,76.10
2019-02-15T07:45:18.540Z,75.50
2019-02-15T07:47:46.828Z,75.20
2019-02-15T07:50:14.831Z,74.80
2019-02-15T07:52:43.348Z,74.10
2019-02-15T07:55:11.214Z,73.10
2019-02-15T07:57:39.404Z,72.20
2019-02-15T08:00:12.096Z,71.90
2019-02-15T08:02:40.761Z,71.90
2019-02-15T08:05:08.505Z,71.20
2019-02-15T08:07:36.597Z,70.30
2019-02-15T08:10:04.453Z,69.60
2019-02-15T08:12:32.396Z,69.60
2019-02-15T08:15:00.360Z,69.30
2019-02-15T08:17:28.353Z,68.30
2019-02-15T08:19:56.319Z,67.60
2019-02-15T08:22:24.006Z,67.50
2019-02-15T08:24:51.912Z,66.90
2019-02-15T08:27:20.566Z,66.40
2019-02-15T08:29:48.505Z,66.20
2019-02-15T08:32:16.289Z,66.10
2019-02-15T08:34:45.361Z,66.20
2019-02-15T08:37:13.902Z,66.30
2019-02-15T08:39:41.821Z,66.30
2019-02-15T08:42:09.967Z,66.60
2019-02-15T08:44:37.710Z,66.40
2019-02-15T08:47:05.718Z,65.90
2019-02-15T08:49:34.277Z,65.50
2019-02-15T08:52:02.186Z,65.40
2019-02-15T08:54:30.152Z,65.30
2019-02-15T08:56:58.221Z,65.30
2019-02-15T08:59:26.177Z,64.80
2019-02-15T09:02:25.381Z,64.40
2019-02-15T09:04:53.588Z,64.50
2019-02-15T09:07:21.440Z,65.10
2019-02-15T09:09:49.253Z,65.20
2019-02-15T09:12:17.592Z,64.70
2019-02-15T09:14:45.533Z,64.50
2019-02-15T09:17:13.844Z,65.00
2019-02-15T09:19:41.612Z,64.70
2019-02-15T09:22:09.494Z,64.30
2019-02-15T09:24:37.346Z,63.90
2019-02-15T09:27:20.330Z,63.50
2019-02-15T09:29:48.331Z,63.10
2019-02-15T09:32:16.056Z,63.20
2019-02-15T09:34:45.312Z,63.60
2019-02-15T09:37:13.286Z,62.60
2019-02-15T09:39:41.049Z,62.60
2019-02-15T09:42:09.024Z,62.50
2019-02-15T09:44:37.148Z,62.50
2019-02-15T09:47:05.433Z,62.30
2019-02-15T09:49:33.828Z,62.40
2019-02-15T09:52:01.401Z,62.30
2019-02-15T09:54:35.464Z,62.00
2019-02-15T09:57:03.933Z,62.00
2019-02-15T09:59:32.350Z,62.50
2019-02-15T10:02:00.071Z,62.20
2019-02-15T10:04:28.068Z,62.00
2019-02-15T10:07:02.098Z,62.10
2019-02-15T10:09:30.073Z,62.50
2019-02-15T10:11:58.014Z,62.00
2019-02-15T10:14:25.688Z,61.80
2019-02-15T10:16:54.177Z,62.00
2019-02-15T10:19:23.805Z,61.70
2019-02-15T10:21:51.537Z,61.60
2019-02-15T10:24:19.488Z,61.70
2019-02-15T10:26:51.182Z,60.80
2019-02-15T10:29:20.776Z,60.10
2019-02-15T10:31:48.534Z,60.20
2019-02-15T10:34:16.330Z,60.30
2019-02-15T10:36:44.216Z,60.20
2019-02-15T10:39:13.670Z,60.30
2019-02-15T10:41:41.997Z,59.90
2019-02-15T10:44:12.670Z,59.90
2019-02-15T10:46:40.448Z,59.80
2019-02-15T10:49:08.739Z,59.60
2019-02-15T10:51:36.806Z,59.70
2019-02-15T10:54:04.570Z,59.90
2019-02-15T10:56:32.418Z,59.70
2019-02-15T10:59:02.053Z,60.10
2019-02-15T11:01:29.900Z,59.60
2019-02-15T11:03:58.069Z,59.90
2019-02-15T11:06:26.050Z,60.20
2019-02-15T11:08:53.989Z,59.80
2019-02-15T11:11:23.257Z,60.20
2019-02-15T11:13:50.904Z,60.40
2019-02-15T11:16:18.601Z,59.70
2019-02-15T11:18:46.286Z,60.20
2019-02-15T11:21:13.975Z,58.90
2019-02-15T11:23:41.551Z,59.10
2019-02-15T11:26:09.581Z,59.50
2019-02-15T11:28:37.498Z,59.40
2019-02-15T11:31:05.222Z,59.40
2019-02-15T11:33:32.957Z,60.00
2019-02-15T11:36:00.686Z,60.20
2019-02-15T11:38:28.318Z,60.20
2019-02-15T11:40:56.088Z,60.10
2019-02-15T11:43:25.171Z,59.20
2019-02-15T11:45:53.098Z,59.20
2019-02-15T11:48:20.911Z,58.80
2019-02-15T11:50:48.765Z,58.40
2019-02-15T11:53:16.628Z,58.50
2019-02-15T11:55:44.390Z,58.90
2019-02-15T11:58:13.399Z,59.30
2019-02-15T12:00:41.136Z,59.60
2019-02-15T12:03:08.933Z,58.90
2019-02-15T12:05:36.755Z,59.10
2019-02-15T12:08:04.756Z,59.30
2019-02-15T12:10:32.589Z,59.20
2019-02-15T12:13:54.150Z,59.60
2019-02-15T12:21:19.064Z,60.00
2019-02-15T12:23:50.186Z,60.00
2019-02-15T12:26:35.280Z,59.30
2019-02-15T12:29:03.115Z,59.30
2019-02-15T12:31:30.739Z,59.60
2019-02-15T12:33:58.360Z,59.70
2019-02-15T12:36:26.155Z,60.20
2019-02-15T12:38:53.912Z,60.30
2019-02-15T12:41:21.548Z,60.10
2019-02-15T12:43:49.321Z,60.30
2019-02-15T12:46:17.020Z,60.50
2019-02-15T12:48:44.755Z,60.40
2019-02-15T12:51:12.572Z,60.40
2019-02-15T12:53:40.492Z,60.40
2019-02-15T12:56:08.299Z,60.70
2019-02-15T12:58:38.950Z,60.80
2019-02-15T13:01:17.958Z,60.70
2019-02-15T13:03:46.392Z,60.90
2019-02-15T13:06:15.376Z,60.90
2019-02-15T13:08:43.740Z,60.70
2019-02-15T13:11:16.192Z,60.80
2019-02-15T13:13:46.526Z,60.80
2019-02-15T13:16:31.085Z,60.50
2019-02-15T13:19:08.204Z,60.20
2019-02-15T13:21:39.469Z,60.30
2019-02-15T13:24:07.384Z,60.40
2019-02-15T13:26:35.293Z,60.50
2019-02-15T13:29:02.970Z,60.50
2019-02-15T13:31:30.752Z,60.20
2019-02-15T13:33:58.497Z,59.90
2019-02-15T13:36:26.346Z,59.90
2019-02-15T13:38:54.055Z,59.90
2019-02-15T13:41:21.793Z,60.00
2019-02-15T13:43:49.591Z,59.70
2019-02-15T13:46:17.308Z,59.40
2019-02-15T13:48:45.046Z,59.60
2019-02-15T13:51:12.610Z,59.80
2019-02-15T13:53:40.245Z,59.90
2019-02-15T13:56:07.916Z,59.70
2019-02-15T13:58:35.605Z,59.70
2019-02-15T14:01:03.258Z,59.90
2019-02-15T14:03:32.747Z,59.90
2019-02-15T14:06:00.437Z,60.10
2019-02-15T14:08:28.081Z,60.10
2019-02-15T14:10:55.870Z,60.20
2019-02-15T14:13:23.534Z,60.30
2019-02-15T14:15:51.157Z,60.40
2019-02-15T14:18:18.850Z,60.40
2019-02-15T14:20:46.496Z,60.10
2019-02-15T14:23:14.273Z,60.10
2019-02-15T14:25:41.920Z,59.90
2019-02-15T14:28:09.668Z,60.00
2019-02-15T14:30:37.290Z,60.20
2019-02-15T14:33:04.990Z,60.10
2019-02-15T14:35:32.645Z,60.30
2019-02-15T14:38:00.353Z,60.40
2019-02-15T14:40:28.122Z,60.50
2019-02-15T14:42:55.869Z,60.60
2019-02-15T14:45:23.497Z,60.70
2019-02-15T14:47:54.866Z,60.90
2019-02-15T14:50:20.684Z,61.00
2019-02-15T14:52:48.382Z,61.40
2019-02-15T14:55:16.152Z,61.80
2019-02-15T14:57:43.940Z,61.80
2019-02-15T15:00:11.775Z,62.10
2019-02-15T15:02:39.672Z,62.30
2019-02-15T15:05:07.739Z,62.30
2019-02-15T15:07:35.558Z,62.20
2019-02-15T15:10:03.850Z,62.30
2019-02-15T15:12:32.075Z,62.40
2019-02-15T15:14:59.806Z,62.40
2019-02-15T15:17:28.001Z,62.80
2019-02-15T15:19:55.638Z,63.00
2019-02-15T15:22:23.679Z,63.50
2019-02-15T15:24:54.230Z,63.80
2019-02-15T15:27:23.038Z,63.80
2019-02-15T15:29:51.307Z,63.50
2019-02-15T15:32:21.833Z,63.80
2019-02-15T15:34:51.136Z,64.10
2019-02-15T15:37:18.985Z,64.40
2019-02-15T15:39:47.184Z,64.60
2019-02-15T15:42:15.006Z,65.50
2019-02-15T15:44:42.894Z,65.40
2019-02-15T15:47:10.895Z,65.70
2019-02-15T15:49:38.813Z,65.90
2019-02-15T15:52:07.187Z,66.20
2019-02-15T15:54:35.094Z,66.00
2019-02-15T15:57:05.328Z,65.60
2019-02-15T15:59:33.624Z,66.60
2019-02-15T16:02:02.720Z,68.30
2019-02-15T16:04:30.980Z,70.40
2019-02-15T16:06:59.303Z,71.30
2019-02-15T16:09:36.027Z,71.70
2019-02-15T16:12:04.048Z,71.80
2019-02-15T16:14:31.940Z,71.60
2019-02-15T16:17:05.178Z,71.40
2019-02-15T16:19:40.533Z,71.60
2019-02-15T16:22:06.342Z,71.60
2019-02-15T16:27:10.774Z,71.20
2019-02-15T16:29:39.023Z,71.30
2019-02-15T16:32:19.333Z,70.80
2019-02-15T16:34:50.073Z,70.40
2019-02-15T16:37:18.422Z,70.10
2019-02-15T16:39:46.908Z,70.80
2019-02-15T16:42:17.870Z,70.80
2019-02-15T16:44:45.738Z,71.00
2019-02-15T16:47:15.646Z,70.90
2019-02-15T16:49:48.260Z,71.50
2019-02-15T16:52:21.366Z,72.10
2019-02-15T16:54:49.609Z,72.70
2019-02-15T16:57:21.837Z,72.40
2019-02-15T16:59:53.818Z,72.80
2019-02-15T17:02:24.086Z,72.70
2019-02-15T17:04:53.360Z,73.30
2019-02-15T17:07:21.593Z,73.60
2019-02-15T17:09:49.536Z,73.40
2019-02-15T17:12:18.172Z,73.50
2019-02-15T17:14:48.437Z,73.50
2019-02-15T17:17:16.733Z,73.90
2019-02-15T17:19:48.380Z,74.30
2019-02-15T17:22:16.995Z,74.00
2019-02-15T17:24:47.081Z,73.50
2019-02-15T17:27:15.268Z,73.80
2019-02-15T17:29:43.531Z,73.30
2019-02-15T17:32:12.137Z,73.30
2019-02-15T17:34:46.667Z,73.30
2019-02-15T17:37:15.956Z,73.70
2019-02-15T17:39:49.765Z,73.80
2019-02-15T17:42:17.914Z,73.80
2019-02-15T17:44:47.176Z,74.30
2019-02-15T17:47:15.070Z,74.80
2019-02-15T17:49:42.978Z,74.80
2019-02-15T17:52:11.118Z,74.60
2019-02-15T17:54:39.320Z,74.80
2019-02-15T17:57:07.502Z,74.90
2019-02-15T17:59:35.520Z,75.30
2019-02-15T18:02:04.009Z,75.90
2019-02-15T18:04:38.047Z,76.00
2019-02-15T18:07:06.164Z,76.10
2019-02-15T18:09:34.116Z,75.60
2019-02-15T18:12:05.276Z,75.50
2019-02-15T18:14:33.015Z,75.60
2019-02-15T18:17:01.465Z,75.60
2019-02-15T18:19:29.146Z,75.90
2019-02-15T18:21:57.621Z,76.30
2019-02-15T18:24:26.085Z,76.60
2019-02-15T18:26:53.846Z,76.50
2019-02-15T18:29:21.739Z,76.10
2019-02-15T18:31:49.627Z,76.20
2019-02-15T18:34:17.849Z,75.50
2019-02-15T18:36:47.712Z,75.20
2019-02-15T18:39:16.921Z,76.50
2019-02-15T18:41:45.624Z,76.80
2019-02-15T18:44:13.738Z,76.60
2019-02-15T18:46:41.420Z,76.60
2019-02-15T18:49:18.974Z,76.90
2019-02-15T18:51:40.679Z,77.10
2019-02-15T18:54:08.323Z,77.10
2019-02-15T18:56:36.235Z,77.60
2019-02-15T18:59:04.064Z,76.80
2019-02-15T19:01:32.924Z,76.80
2019-02-15T19:04:01.534Z,76.90
2019-02-15T19:06:41.261Z,77.00
2019-02-15T19:09:09.157Z,77.20
2019-02-15T19:11:37.002Z,76.90
2019-02-15T19:14:04.728Z,76.90
2019-02-15T19:16:32.725Z,77.30
2019-02-15T19:19:00.612Z,77.80
2019-02-15T19:21:28.767Z,77.70
2019-02-15T19:23:57.418Z,77.90
2019-02-15T19:26:30.260Z,78.00
2019-02-15T19:28:57.920Z,78.40
2019-02-15T19:31:25.956Z,76.90
2019-02-15T19:33:54.238Z,76.80
2019-02-15T19:36:22.185Z,77.00
2019-02-15T19:38:50.180Z,77.50
2019-02-15T19:41:18.260Z,78.20
2019-02-15T19:43:46.128Z,78.30
2019-02-15T19:46:13.971Z,78.70
2019-02-15T19:48:44.071Z,79.10
2019-02-15T19:51:16.235Z,78.80
2019-02-15T19:53:46.443Z,78.70
2019-02-15T19:56:14.241Z,78.70
2019-02-15T19:58:43.804Z,78.80
2019-02-15T20:01:14.704Z,78.90
2019-02-15T20:03:44.262Z,79.30
2019-02-15T20:06:12.268Z,79.10
2019-02-15T20:08:40.081Z,78.80
2019-02-15T20:11:07.955Z,78.90
2019-02-15T20:13:41.676Z,79.10
2019-02-15T20:16:39.532Z,79.50
2019-02-15T20:19:08.084Z,79.50
2019-02-15T20:21:43.720Z,79.40
2019-02-15T20:24:13.172Z,79.70
2019-02-15T20:26:41.566Z,80.00
2019-02-15T20:29:09.512Z,79.90
2019-02-15T20:31:37.385Z,80.10
2019-02-15T20:34:05.174Z,80.50
2019-02-15T20:36:33.513Z,80.70
2019-02-15T20:39:02.555Z,80.50
2019-02-15T20:41:33.647Z,80.60
2019-02-15T20:44:03.689Z,80.70
2019-02-15T20:46:31.534Z,80.20
2019-02-15T20:49:04.763Z,80.50
2019-02-15T20:51:30.567Z,81.10
2019-02-15T20:53:58.306Z,80.90
2019-02-15T20:56:26.232Z,81.30
2019-02-15T20:58:54.290Z,81.20
2019-02-15T21:01:23.181Z,81.40
2019-02-15T21:03:51.020Z,81.10
2019-02-15T21:06:19.155Z,80.90
2019-02-15T21:08:47.109Z,81.20
2019-02-15T21:11:17.413Z,81.20
2019-02-15T21:13:45.185Z,81.00
2019-02-15T21:16:13.072Z,80.80
2019-02-15T21:18:41.198Z,81.00
2019-02-15T21:21:10.159Z,81.30
2019-02-15T21:23:38.049Z,81.50
2019-02-15T21:26:06.328Z,81.40
2019-02-15T21:28:34.616Z,81.00
2019-02-15T21:31:03.940Z,80.70
2019-02-15T21:33:31.953Z,80.40
2019-02-15T21:36:01.218Z,80.60
2019-02-15T21:38:29.020Z,80.30
2019-02-15T21:40:56.937Z,80.60
2019-02-15T21:43:24.793Z,81.10
2019-02-15T21:45:52.553Z,81.60
2019-02-15T21:48:20.693Z,81.60
2019-02-15T21:50:49.735Z,81.80
2019-02-15T21:53:17.717Z,82.20
2019-02-15T21:55:47.784Z,82.10
2019-02-15T21:58:15.669Z,81.30
2019-02-15T22:00:43.922Z,80.90
2019-02-15T22:03:11.845Z,81.40
2019-02-15T22:05:39.628Z,81.20
2019-02-15T22:08:07.451Z,80.70
2019-02-15T22:10:35.298Z,81.50
2019-02-15T22:13:05.002Z,82.00
2019-02-15T22:15:33.279Z,81.40
2019-02-15T22:18:01.046Z,81.70
2019-02-15T22:20:30.264Z,82.40
2019-02-15T22:22:58.304Z,82.90
2019-02-15T22:25:26.897Z,83.10
2019-02-15T22:27:54.599Z,82.40
2019-02-15T22:30:23.399Z,81.90
2019-02-15T22:32:51.584Z,81.70
2019-02-15T22:35:19.407Z,81.60
2019-02-15T22:37:47.341Z,81.10
2019-02-15T22:40:26.036Z,81.90
2019-02-15T22:42:53.826Z,81.80
2019-02-15T22:45:23.664Z,81.50
2019-02-15T22:47:51.509Z,81.40
2019-02-15T22:50:22.198Z,82.20
2019-02-15T22:52:50.329Z,82.70
2019-02-15T22:55:18.101Z,83.10
2019-02-15T22:57:46.057Z,83.30
2019-02-15T23:00:28.305Z,84.00
2019-02-15T23:02:56.377Z,84.70
2019-02-15T23:05:24.261Z,84.40
2019-02-15T23:07:52.175Z,84.30
2019-02-15T23:10:29.155Z,84.10
2019-02-15T23:12:56.905Z,83.80
2019-02-15T23:15:24.723Z,83.50
2019-02-15T23:17:52.548Z,83.80
2019-02-15T23:20:23.579Z,84.00
2019-02-15T23:22:53.566Z,84.20
2019-02-15T23:25:21.469Z,83.60
2019-02-15T23:27:49.339Z,83.90
2019-02-15T23:30:21.865Z,84.10
2019-02-15T23:32:50.694Z,83.90
2019-02-15T23:35:18.626Z,84.10
2019-02-15T23:37:46.477Z,84.20
2019-02-15T23:40:15.349Z,84.50
2019-02-15T23:42:43.232Z,84.60
2019-02-15T23:45:11.148Z,84.80
2019-02-15T23:47:39.030Z,84.90
2019-02-15T23:50:06.955Z,85.20
2019-02-15T23:52:35.664Z,85.40
2019-02-15T23:55:04.205Z,85.60
2019-02-15T23:57:32.682Z,85.50
